Time,TemperatureF,DewpointF,PressureIn,WindDirection,WindDirectionDegrees,WindSpeedMPH,WindSpeedGustMPH,Humidity,HourlyPrecipIn,Conditions,Clouds,dailyrainin,SoftwareType,DateUTC
2013-03-04 00:15:00,43.7,29.0,0.00,NNW,338,6.0,16.0,56,0.00,,,0.00,weatherlink.com 1.10,2013-03-04 08:15:00,
2013-03-04 00:30:00,43.3,28.0,0.00,WNW,302,6.0,8.0,56,0.00,,,0.00,weatherlink.com 1.10,2013-03-04 08:30:00,
2013-03-04 00:45:00,43.1,28.0,0.00,NNW,339,6.0,8.0,56,0.00,,,0.00,weatherlink.com 1.10,2013-03-04 08:45:00,
2013-03-04 01:00:00,43.6,29.0,0.00,NNW,343,3.0,10.0,56,0.00,,,0.00,weatherlink.com 1.10,2013-03-04 09:00:00,
2013-03-04 01:15:00,42.8,28.0,0.00,NNW,342,0.0,10.0,56,0.00,,,0.00,weatherlink.com 1.10,2013-03-04 09:15:00,
2013-03-04 01:30:00,40.2,26.0,0.00,NW,320,1.0,4.0,57,0.00,,,0.00,weatherlink.com 1.10,2013-03-04 09:30:00,
2013-03-04 01:45:00,38.4,27.0,0.00,NW,318,0.0,5.0,64,0.00,,,0.00,weatherlink.com 1.10,2013-03-04 09:45:00,
2013-03-04 02:00:00,39.5,28.0,0.00,NW,325,3.0,7.0,64,0.00,,,0.00,weatherlink.com 1.10,2013-03-04 10:00:00,
2013-03-04 02:15:00,42.1,28.0,0.00,NW,313,5.0,9.0,58,0.00,,,0.00,weatherlink.com 1.10,2013-03-04 10:15:00,
2013-03-04 02:30:00,43.5,28.0,0.00,NW,321,0.0,11.0,54,0.00,,,0.00,weatherlink.com 1.10,2013-03-04 10:30:00,
2013-03-04 02:45:00,40.3,26.0,0.00,NW,324,1.0,5.0,58,0.00,,,0.00,weatherlink.com 1.10,2013-03-04 10:45:00,
2013-03-04 03:00:00,38.6,25.0,0.00,NNW,330,1.0,5.0,59,0.00,,,0.00,weatherlink.com 1.10,2013-03-04 11:00:00,
2013-03-04 03:15:00,37.0,25.0,0.00,NNW,347,0.0,5.0,63,0.00,,,0.00,weatherlink.com 1.10,2013-03-04 11:15:00,
2013-03-04 03:30:00,39.9,30.0,0.00,NNE,22,6.0,9.0,67,0.00,,,0.00,weatherlink.com 1.10,2013-03-04 11:30:00,
2013-03-04 03:45:00,41.7,30.0,0.00,NNE,29,2.0,9.0,63,0.00,,,0.00,weatherlink.com 1.10,2013-03-04 11:45:00,
2013-03-04 04:00:00,41.8,30.0,0.00,NNE,24,9.0,12.0,63,0.00,,,0.00,weatherlink.com 1.10,2013-03-04 12:00:00,
2013-03-04 04:15:00,42.0,30.0,0.00,NNW,345,5.0,9.0,62,0.00,,,0.00,weatherlink.com 1.10,2013-03-04 12:15:00,
2013-03-04 04:30:00,39.4,26.0,0.00,NNW,331,5.0,7.0,60,0.00,,,0.00,weatherlink.com 1.10,2013-03-04 12:30:00,
2013-03-04 04:45:00,37.5,25.0,0.00,NNW,338,2.0,3.0,62,0.00,,,0.00,weatherlink.com 1.10,2013-03-04 12:45:00,
2013-03-04 05:00:00,36.5,25.0,0.00,NNW,338,2.0,3.0,63,0.00,,,0.00,weatherlink.com 1.10,2013-03-04 13:00:00,
2013-03-04 05:15:00,34.4,24.0,0.00,NNW,330,2.0,5.0,65,0.00,,,0.00,weatherlink.com 1.10,2013-03-04 13:15:00,
2013-03-04 05:30:00,31.9,22.0,0.00,WSW,254,4.0,4.0,66,0.00,,,0.00,weatherlink.com 1.10,2013-03-04 13:30:00,
2013-03-04 05:45:00,30.4,22.0,0.00,WSW,257,4.0,5.0,70,0.00,,,0.00,weatherlink.com 1.10,2013-03-04 13:45:00,
2013-03-04 06:00:00,30.3,23.0,0.00,WSW,258,4.0,4.0,74,0.00,,,0.00,weatherlink.com 1.10,2013-03-04 14:00:00,
2013-03-04 06:15:00,30.8,22.0,0.00,West,259,4.0,6.0,71,0.00,,,0.00,weatherlink.com 1.10,2013-03-04 14:15:00,
2013-03-04 06:30:00,31.1,24.0,0.00,WNW,302,4.0,7.0,76,0.00,,,0.00,weatherlink.com 1.10,2013-03-04 14:30:00,
2013-03-04 06:45:00,34.0,24.0,0.00,WNW,296,2.0,8.0,68,0.00,,,0.00,weatherlink.com 1.10,2013-03-04 14:45:00,
2013-03-04 07:00:00,33.7,25.0,0.00,WSW,242,6.0,8.0,70,0.00,,,0.00,weatherlink.com 1.10,2013-03-04 15:00:00,
2013-03-04 07:15:00,35.1,26.0,0.00,West,262,2.0,8.0,70,0.00,,,0.00,weatherlink.com 1.10,2013-03-04 15:15:00,
2013-03-04 07:30:00,37.0,27.0,0.00,West,264,5.0,6.0,67,0.00,,,0.00,weatherlink.com 1.10,2013-03-04 15:30:00,
2013-03-04 07:45:00,40.2,28.0,0.00,West,265,3.0,5.0,62,0.00,,,0.00,weatherlink.com 1.10,2013-03-04 15:45:00,
2013-03-04 08:00:00,43.5,28.0,0.00,West,268,3.0,6.0,55,0.00,,,0.00,weatherlink.com 1.10,2013-03-04 16:00:00,
2013-03-04 08:15:00,45.8,28.0,0.00,West,273,3.0,6.0,51,0.00,,,0.00,weatherlink.com 1.10,2013-03-04 16:15:00,
2013-03-04 08:30:00,47.5,28.0,0.00,WSW,251,5.0,7.0,48,0.00,,,0.00,weatherlink.com 1.10,2013-03-04 16:30:00,
2013-03-04 08:46:00,48.7,29.0,0.00,West,264,2.0,7.0,47,0.00,,,0.00,weatherlink.com 1.10,2013-03-04 16:46:00,
2013-03-04 09:01:00,50.5,29.0,0.00,North,355,6.0,12.0,43,0.00,,,0.00,weatherlink.com 1.10,2013-03-04 17:01:00,
2013-03-04 09:16:00,51.5,28.0,0.00,NNW,340,10.0,13.0,41,0.00,,,0.00,weatherlink.com 1.10,2013-03-04 17:16:00,
2013-03-04 09:31:00,52.3,28.0,0.00,NW,311,1.0,11.0,39,0.00,,,0.00,weatherlink.com 1.10,2013-03-04 17:31:00,
2013-03-04 09:46:00,53.2,29.0,0.00,NNW,342,2.0,11.0,39,0.00,,,0.00,weatherlink.com 1.10,2013-03-04 17:46:00,
2013-03-04 10:01:00,53.9,28.0,0.00,NE,34,3.0,9.0,37,0.00,,,0.00,weatherlink.com 1.10,2013-03-04 18:01:00,
2013-03-04 10:16:00,55.1,28.0,0.00,NNE,26,2.0,9.0,36,0.00,,,0.00,weatherlink.com 1.10,2013-03-04 18:16:00,
2013-03-04 10:31:00,55.8,28.0,0.00,NNE,17,4.0,12.0,34,0.00,,,0.00,weatherlink.com 1.10,2013-03-04 18:31:00,
2013-03-04 10:46:00,56.3,28.0,0.00,WNW,282,2.0,9.0,34,0.00,,,0.00,weatherlink.com 1.10,2013-03-04 18:46:00,
2013-03-04 11:01:00,56.9,28.0,0.00,NW,315,0.0,7.0,33,0.00,,,0.00,weatherlink.com 1.10,2013-03-04 19:01:00,
2013-03-04 11:16:00,57.7,29.0,0.00,NNW,342,5.0,9.0,33,0.00,,,0.00,weatherlink.com 1.10,2013-03-04 19:16:00,
2013-03-04 11:31:00,57.9,25.0,0.00,NW,305,0.0,9.0,28,0.00,,,0.00,weatherlink.com 1.10,2013-03-04 19:31:00,
2013-03-04 11:46:00,58.8,27.0,0.00,West,277,5.0,7.0,30,0.00,,,0.00,weatherlink.com 1.10,2013-03-04 19:46:00,
2013-03-04 12:01:00,60.1,27.0,0.00,West,275,0.0,8.0,28,0.00,,,0.00,weatherlink.com 1.10,2013-03-04 20:01:00,
2013-03-04 12:16:00,60.3,26.0,0.00,NW,319,3.0,8.0,27,0.00,,,0.00,weatherlink.com 1.10,2013-03-04 20:16:00,
2013-03-04 12:31:00,61.2,27.0,0.00,NNW,333,7.0,7.0,27,0.00,,,0.00,weatherlink.com 1.10,2013-03-04 20:31:00,
2013-03-04 12:46:00,61.7,25.0,0.00,NW,323,0.0,7.0,25,0.00,,,0.00,weatherlink.com 1.10,2013-03-04 20:46:00,
2013-03-04 13:01:00,61.8,25.0,0.00,West,261,2.0,7.0,25,0.00,,,0.00,weatherlink.com 1.10,2013-03-04 21:01:00,
2013-03-04 13:16:00,63.3,25.0,0.00,NNW,330,7.0,11.0,23,0.00,,,0.00,weatherlink.com 1.10,2013-03-04 21:16:00,
2013-03-04 13:31:00,63.5,25.0,0.00,NW,312,0.0,6.0,23,0.00,,,0.00,weatherlink.com 1.10,2013-03-04 21:31:00,
2013-03-04 13:46:00,65.2,25.0,0.00,NW,309,3.0,5.0,22,0.00,,,0.00,weatherlink.com 1.10,2013-03-04 21:46:00,
2013-03-04 14:01:00,66.1,26.0,0.00,WNW,284,5.0,7.0,22,0.00,,,0.00,weatherlink.com 1.10,2013-03-04 22:01:00,
2013-03-04 14:16:00,66.3,25.0,0.00,West,278,2.0,6.0,21,0.00,,,0.00,weatherlink.com 1.10,2013-03-04 22:16:00,
2013-03-04 14:31:00,66.8,22.0,0.00,WSW,244,0.0,5.0,18,0.00,,,0.00,weatherlink.com 1.10,2013-03-04 22:31:00,
2013-03-04 14:46:00,68.4,24.0,0.00,SW,227,5.0,7.0,19,0.00,,,0.00,weatherlink.com 1.10,2013-03-04 22:46:00,
2013-03-04 15:01:00,66.9,19.0,0.00,SW,217,0.0,6.0,16,0.00,,,0.00,weatherlink.com 1.10,2013-03-04 23:01:00,
2013-03-04 15:16:00,67.8,21.0,0.00,WSW,253,0.0,3.0,17,0.00,,,0.00,weatherlink.com 1.10,2013-03-04 23:16:00,
2013-03-04 15:31:00,68.1,20.0,0.00,ESE,117,0.0,6.0,16,0.00,,,0.00,weatherlink.com 1.10,2013-03-04 23:31:00,
2013-03-04 15:46:00,67.7,17.0,0.00,South,182,1.0,8.0,14,0.00,,,0.00,weatherlink.com 1.10,2013-03-04 23:46:00,
2013-03-04 16:01:00,67.1,16.0,0.00,WSW,237,1.0,8.0,14,0.00,,,0.00,weatherlink.com 1.10,2013-03-05 00:01:00,
2013-03-04 16:17:00,67.6,15.0,0.00,SSE,163,5.0,5.0,13,0.00,,,0.00,weatherlink.com 1.10,2013-03-05 00:17:00,
2013-03-04 16:31:00,68.0,15.0,0.00,SSW,208,7.0,10.0,13,0.00,,,0.00,weatherlink.com 1.10,2013-03-05 00:31:00,
2013-03-04 16:47:00,67.1,16.0,0.00,South,177,8.0,9.0,14,0.00,,,0.00,weatherlink.com 1.10,2013-03-05 00:47:00,
2013-03-04 17:02:00,66.6,16.0,0.00,SSE,156,7.0,8.0,14,0.00,,,0.00,weatherlink.com 1.10,2013-03-05 01:02:00,
2013-03-04 17:17:00,65.1,16.0,0.00,South,175,2.0,9.0,15,0.00,,,0.00,weatherlink.com 1.10,2013-03-05 01:17:00,
2013-03-04 17:32:00,63.6,16.0,0.00,SSE,163,1.0,7.0,16,0.00,,,0.00,weatherlink.com 1.10,2013-03-05 01:32:00,
2013-03-04 17:47:00,62.2,18.0,0.00,South,169,2.0,9.0,18,0.00,,,0.00,weatherlink.com 1.10,2013-03-05 01:47:00,
2013-03-04 18:02:00,60.9,19.0,0.00,SSE,147,0.0,7.0,20,0.00,,,0.00,weatherlink.com 1.10,2013-03-05 02:02:00,
2013-03-04 18:17:00,59.4,19.0,0.00,SSE,151,1.0,5.0,21,0.00,,,0.00,weatherlink.com 1.10,2013-03-05 02:17:00,
2013-03-04 18:32:00,57.2,18.0,0.00,SSE,155,0.0,4.0,22,0.00,,,0.00,weatherlink.com 1.10,2013-03-05 02:32:00,
2013-03-04 18:47:00,54.8,17.0,0.00,SSE,154,0.0,4.0,23,0.00,,,0.00,weatherlink.com 1.10,2013-03-05 02:47:00,
2013-03-04 19:02:00,51.4,17.0,0.00,SSE,155,0.0,0.0,25,0.00,,,0.00,weatherlink.com 1.10,2013-03-05 03:02:00,
2013-03-04 19:17:00,48.7,16.0,0.00,SE,141,6.0,7.0,27,0.00,,,0.00,weatherlink.com 1.10,2013-03-05 03:17:00,
2013-03-04 19:32:00,52.8,18.0,0.00,SSE,158,3.0,9.0,25,0.00,,,0.00,weatherlink.com 1.10,2013-03-05 03:32:00,
2013-03-04 19:47:00,53.8,19.0,0.00,SSE,162,4.0,10.0,25,0.00,,,0.00,weatherlink.com 1.10,2013-03-05 03:47:00,
2013-03-04 20:02:00,53.8,19.0,0.00,SSE,147,3.0,11.0,26,0.00,,,0.00,weatherlink.com 1.10,2013-03-05 04:02:00,
2013-03-04 20:17:00,53.4,19.0,0.00,South,170,1.0,8.0,26,0.00,,,0.00,weatherlink.com 1.10,2013-03-05 04:17:00,
2013-03-04 20:32:00,52.6,18.0,0.00,SSE,152,5.0,13.0,26,0.00,,,0.00,weatherlink.com 1.10,2013-03-05 04:32:00,
2013-03-04 20:47:00,51.4,18.0,0.00,SSE,157,6.0,16.0,27,0.00,,,0.00,weatherlink.com 1.10,2013-03-05 04:47:00,
2013-03-04 21:02:00,52.4,19.0,0.00,SE,131,7.0,14.0,27,0.00,,,0.00,weatherlink.com 1.10,2013-03-05 05:02:00,
2013-03-04 21:17:00,54.2,21.0,0.00,South,169,5.0,17.0,27,0.00,,,0.00,weatherlink.com 1.10,2013-03-05 05:17:00,
2013-03-04 21:32:00,54.2,21.0,0.00,South,176,4.0,13.0,27,0.00,,,0.00,weatherlink.com 1.10,2013-03-05 05:32:00,
2013-03-04 21:47:00,53.7,20.0,0.00,South,177,4.0,14.0,27,0.00,,,0.00,weatherlink.com 1.10,2013-03-05 05:47:00,
2013-03-04 22:02:00,53.0,20.0,0.00,SSE,167,7.0,11.0,28,0.00,,,0.00,weatherlink.com 1.10,2013-03-05 06:02:00,
2013-03-04 22:17:00,51.9,20.0,0.00,South,184,8.0,11.0,29,0.00,,,0.00,weatherlink.com 1.10,2013-03-05 06:17:00,
2013-03-04 22:32:00,51.8,20.0,0.00,SSW,194,5.0,10.0,29,0.00,,,0.00,weatherlink.com 1.10,2013-03-05 06:32:00,
2013-03-04 22:47:00,51.1,20.0,0.00,South,188,4.0,9.0,29,0.00,,,0.00,weatherlink.com 1.10,2013-03-05 06:47:00,
2013-03-04 23:02:00,50.3,22.0,0.00,SSE,148,5.0,10.0,33,0.00,,,0.00,weatherlink.com 1.10,2013-03-05 07:02:00,
2013-03-04 23:17:00,50.4,22.0,0.00,SSE,149,8.0,10.0,33,0.00,,,0.00,weatherlink.com 1.10,2013-03-05 07:17:00,
2013-03-04 23:32:00,50.5,21.0,0.00,SSE,165,4.0,9.0,32,0.00,,,0.00,weatherlink.com 1.10,2013-03-05 07:32:00,
2013-03-04 23:47:00,49.1,17.0,0.00,South,190,1.0,7.0,28,0.00,,,0.00,weatherlink.com 1.10,2013-03-05 07:47:00,